createdAt,value
2022-10-07T00:00:41.959Z,1.42
2022-10-07T00:03:08.643Z,1.10
2022-10-07T00:05:35.416Z,3.00
2022-10-07T00:08:01.906Z,1.50
2022-10-07T00:10:29.555Z,1.88
2022-10-07T00:12:56.588Z,2.08
2022-10-07T00:15:23.596Z,1.75
2022-10-07T00:17:50.147Z,1.70
2022-10-07T00:20:16.612Z,1.80
2022-10-07T00:22:43.709Z,1.42
2022-10-07T00:25:10.343Z,1.20
2022-10-07T00:27:37.294Z,1.98
2022-10-07T00:30:04.167Z,2.33
2022-10-07T00:32:30.536Z,1.80
2022-10-07T00:34:56.910Z,1.33
2022-10-07T00:37:23.412Z,1.52
2022-10-07T00:39:50.069Z,1.80
2022-10-07T00:42:17.897Z,2.13
2022-10-07T00:44:45.430Z,2.00
2022-10-07T00:47:28.212Z,2.00
2022-10-07T00:50:02.077Z,1.88
2022-10-07T00:52:34.155Z,1.85
2022-10-07T00:55:08.625Z,1.67
2022-10-07T00:57:38.001Z,2.20
2022-10-07T01:00:06.572Z,1.30
2022-10-07T01:02:34.818Z,2.00
2022-10-07T01:05:05.298Z,2.00
2022-10-07T01:07:32.935Z,2.00
2022-10-07T01:10:00.440Z,1.70
2022-10-07T01:12:46.825Z,1.73
2022-10-07T01:15:46.087Z,2.08
2022-10-07T01:18:24.244Z,2.13
2022-10-07T01:20:58.840Z,1.80
2022-10-07T01:23:49.270Z,2.50
2022-10-07T01:26:40.128Z,1.90
2022-10-07T01:29:13.461Z,1.70
2022-10-07T01:31:49.973Z,2.72
2022-10-07T01:34:18.103Z,1.88
2022-10-07T01:36:51.059Z,1.60
2022-10-07T01:39:26.819Z,1.80
2022-10-07T01:41:54.503Z,1.95
2022-10-07T01:44:21.699Z,1.52
2022-10-07T01:46:48.311Z,2.10
2022-10-07T01:49:14.721Z,1.93
2022-10-07T01:51:42.254Z,2.15
2022-10-07T01:54:25.024Z,2.42
2022-10-07T01:57:18.303Z,2.10
2022-10-07T02:00:10.345Z,2.33
2022-10-07T02:03:30.330Z,2.33
2022-10-07T02:06:24.538Z,2.38
2022-10-07T02:08:54.909Z,2.30
2022-10-07T02:11:30.859Z,2.25
2022-10-07T02:14:12.103Z,2.58
2022-10-07T02:16:44.374Z,2.00
2022-10-07T02:19:15.979Z,2.75
2022-10-07T02:21:46.483Z,2.30
2022-10-07T02:24:14.739Z,2.38
2022-10-07T02:26:43.441Z,2.38
2022-10-07T02:29:12.757Z,2.47
2022-10-07T02:31:41.829Z,2.53
2022-10-07T02:34:15.147Z,2.40
2022-10-07T02:36:53.515Z,3.15
2022-10-07T02:39:23.118Z,2.42
2022-10-07T02:41:57.083Z,2.57
2022-10-07T02:44:48.835Z,2.85
2022-10-07T02:47:27.171Z,3.63
2022-10-07T02:49:53.981Z,2.20
2022-10-07T02:52:22.573Z,2.47
2022-10-07T02:54:59.740Z,2.80
2022-10-07T02:57:30.958Z,2.22
2022-10-07T03:00:01.067Z,2.40
2022-10-07T03:02:36.940Z,3.20
2022-10-07T03:05:03.782Z,2.85
2022-10-07T03:07:30.455Z,2.60
2022-10-07T03:09:56.928Z,2.78
2022-10-07T03:12:23.296Z,3.53
2022-10-07T03:14:50.208Z,2.83
2022-10-07T03:17:19.958Z,2.72
2022-10-07T03:19:46.498Z,2.63
2022-10-07T03:22:13.014Z,3.05
2022-10-07T03:24:40.374Z,3.25
2022-10-07T03:27:07.736Z,2.10
2022-10-07T03:29:37.966Z,2.85
2022-10-07T03:32:04.732Z,3.03
2022-10-07T03:34:32.099Z,2.83
2022-10-07T03:37:00.731Z,2.50
2022-10-07T03:39:27.593Z,2.22
2022-10-07T03:41:54.156Z,3.13
2022-10-07T03:44:22.555Z,3.13
2022-10-07T03:46:50.690Z,2.80
2022-10-07T03:49:18.175Z,3.13
2022-10-07T03:51:44.689Z,2.47
2022-10-07T03:54:11.224Z,2.40
2022-10-07T03:56:37.831Z,2.90
2022-10-07T03:59:04.534Z,2.33
2022-10-07T04:01:33.466Z,2.10
2022-10-07T04:04:00.874Z,2.53
2022-10-07T04:06:29.190Z,2.28
2022-10-07T04:08:56.182Z,2.60
2022-10-07T04:11:24.399Z,2.63
2022-10-07T04:13:51.485Z,2.60
2022-10-07T04:16:18.763Z,2.40
2022-10-07T04:18:45.712Z,2.30
2022-10-07T04:21:14.817Z,2.63
2022-10-07T04:23:42.333Z,2.58
2022-10-07T04:26:11.428Z,3.03
2022-10-07T04:28:38.838Z,2.08
2022-10-07T04:31:06.890Z,2.10
2022-10-07T04:33:33.456Z,2.17
2022-10-07T04:36:07.593Z,2.08
2022-10-07T04:38:34.169Z,2.15
2022-10-07T04:41:05.307Z,1.83
2022-10-07T04:43:34.157Z,2.22
2022-10-07T04:46:14.102Z,2.07
2022-10-07T04:48:46.356Z,2.28
2022-10-07T04:51:14.068Z,2.72
2022-10-07T04:53:40.430Z,1.80
2022-10-07T04:56:06.963Z,2.25
2022-10-07T04:58:33.483Z,1.97
2022-10-07T05:01:00.941Z,1.80
2022-10-07T05:03:29.164Z,2.30
2022-10-07T05:06:05.651Z,1.95
2022-10-07T05:08:33.181Z,1.70
2022-10-07T05:11:01.298Z,1.83
2022-10-07T05:13:28.801Z,1.98
2022-10-07T05:15:56.396Z,1.88
2022-10-07T05:18:24.057Z,1.70
2022-10-07T05:20:51.194Z,2.08
2022-10-07T05:23:23.225Z,2.03
2022-10-07T05:26:08.199Z,1.60
2022-10-07T05:28:35.783Z,1.73
2022-10-07T05:31:10.947Z,1.75
2022-10-07T05:33:37.795Z,2.00
2022-10-07T05:36:05.902Z,1.93
2022-10-07T05:38:37.272Z,2.15
2022-10-07T05:41:07.110Z,2.08
2022-10-07T05:43:37.776Z,2.15
2022-10-07T05:46:07.500Z,2.13
2022-10-07T05:48:38.941Z,1.60
2022-10-07T05:51:08.218Z,1.83
2022-10-07T05:53:34.893Z,1.60
2022-10-07T05:56:09.317Z,1.77
2022-10-07T05:58:36.169Z,1.80
2022-10-07T06:01:07.721Z,1.70
2022-10-07T06:03:37.372Z,1.52
2022-10-07T06:06:11.511Z,1.20
2022-10-07T06:08:37.888Z,1.55
2022-10-07T06:11:24.273Z,1.63
2022-10-07T06:13:55.018Z,1.57
2022-10-07T06:16:25.388Z,1.92
2022-10-07T06:18:54.890Z,1.67
2022-10-07T06:21:28.297Z,1.80
2022-10-07T06:23:57.088Z,1.35
2022-10-07T06:26:24.193Z,1.80
2022-10-07T06:28:51.033Z,1.98
2022-10-07T06:31:23.586Z,2.10
2022-10-07T06:33:50.857Z,1.85
2022-10-07T06:36:18.319Z,1.80
2022-10-07T06:38:49.843Z,1.50
2022-10-07T06:41:16.918Z,1.40
2022-10-07T06:43:43.485Z,1.70
2022-10-07T06:46:14.907Z,1.48
2022-10-07T06:48:42.571Z,1.58
2022-10-07T06:51:12.757Z,1.13
2022-10-07T06:53:39.163Z,1.65
2022-10-07T06:56:06.453Z,1.90
2022-10-07T06:58:35.300Z,1.75
2022-10-07T07:01:03.101Z,2.00
2022-10-07T07:03:30.277Z,1.80
2022-10-07T07:05:57.405Z,1.13
2022-10-07T07:08:27.775Z,1.90
2022-10-07T07:10:54.590Z,1.60
2022-10-07T07:13:21.199Z,1.80
2022-10-07T07:15:58.823Z,2.00
2022-10-07T07:18:25.885Z,0.90
2022-10-07T07:20:55.268Z,1.40
2022-10-07T07:23:21.777Z,1.55
2022-10-07T07:25:48.144Z,1.90
2022-10-07T07:28:15.838Z,1.50
2022-10-07T07:30:42.474Z,1.00
2022-10-07T07:33:09.482Z,1.23
2022-10-07T07:35:44.244Z,1.42
2022-10-07T07:38:11.678Z,1.30
2022-10-07T07:40:39.626Z,1.43
2022-10-07T07:43:07.268Z,0.98
2022-10-07T07:45:40.218Z,1.20
2022-10-07T07:48:06.830Z,1.42
2022-10-07T07:50:33.972Z,1.17
2022-10-07T07:53:02.401Z,1.07
2022-10-07T07:55:30.193Z,1.70
2022-10-07T07:57:56.638Z,1.20
2022-10-07T08:00:23.292Z,1.20
2022-10-07T08:02:49.687Z,1.20
2022-10-07T08:05:19.045Z,1.00
2022-10-07T08:07:49.324Z,1.17
2022-10-07T08:10:18.722Z,1.42
2022-10-07T08:12:45.196Z,2.00
2022-10-07T08:15:11.593Z,1.00
2022-10-07T08:17:38.105Z,1.20
2022-10-07T08:20:04.846Z,1.10
2022-10-07T08:22:31.201Z,1.55
2022-10-07T08:24:59.922Z,1.20
2022-10-07T08:27:28.557Z,1.35
2022-10-07T08:29:55.113Z,1.30
2022-10-07T08:32:21.469Z,1.33
2022-10-07T08:34:48.008Z,1.30
2022-10-07T08:37:14.556Z,1.38
2022-10-07T08:39:41.098Z,1.60
2022-10-07T08:42:29.583Z,0.98
2022-10-07T08:44:56.189Z,1.33
2022-10-07T08:47:34.865Z,1.45
2022-10-07T08:50:25.358Z,1.80
2022-10-07T08:52:55.692Z,1.85
2022-10-07T08:55:41.352Z,1.77
2022-10-07T08:58:07.691Z,1.25
2022-10-07T09:00:50.498Z,1.65
2022-10-07T09:03:47.454Z,1.45
2022-10-07T09:06:23.287Z,1.50
2022-10-07T09:08:57.148Z,1.67
2022-10-07T09:11:29.021Z,1.60
2022-10-07T09:14:16.921Z,1.95
2022-10-07T09:16:46.538Z,1.02
2022-10-07T09:19:32.006Z,1.40
2022-10-07T09:22:05.200Z,0.82
2022-10-07T09:24:34.801Z,1.35
2022-10-07T09:27:07.629Z,1.25
2022-10-07T09:29:34.178Z,1.30
2022-10-07T09:32:00.724Z,1.10
2022-10-07T09:34:30.083Z,1.42
2022-10-07T09:37:21.246Z,1.73
2022-10-07T09:39:52.957Z,1.67
2022-10-07T09:42:29.780Z,1.30
2022-10-07T09:45:00.358Z,1.58
2022-10-07T09:47:31.295Z,1.40
2022-10-07T09:49:59.914Z,1.30
2022-10-07T09:52:31.624Z,1.40
2022-10-07T09:55:32.428Z,1.35
2022-10-07T09:58:01.361Z,1.00
2022-10-07T10:00:28.525Z,1.20
2022-10-07T10:03:05.201Z,1.80
2022-10-07T10:05:35.189Z,1.48
2022-10-07T10:08:21.251Z,1.40
2022-10-07T10:10:56.251Z,1.05
2022-10-07T10:13:27.119Z,1.00
2022-10-07T10:15:53.729Z,1.20
2022-10-07T10:18:33.340Z,0.80
2022-10-07T10:21:12.028Z,1.15
2022-10-07T10:23:45.297Z,1.48
2022-10-07T10:26:32.480Z,1.05
2022-10-07T10:29:11.496Z,1.08
2022-10-07T10:32:02.400Z,1.00
2022-10-07T10:34:47.520Z,1.50
2022-10-07T10:37:21.701Z,1.13
2022-10-07T10:40:29.760Z,1.03
2022-10-07T10:43:06.238Z,1.00
2022-10-07T10:45:35.849Z,0.85
2022-10-07T10:48:29.110Z,1.15
2022-10-07T10:51:14.344Z,1.20
2022-10-07T10:53:51.334Z,0.80
2022-10-07T10:56:49.352Z,1.02
2022-10-07T10:59:37.709Z,0.90
2022-10-07T11:02:43.470Z,1.08
2022-10-07T11:05:28.417Z,1.30
2022-10-07T11:08:10.535Z,0.80
2022-10-07T11:11:04.075Z,1.23
2022-10-07T11:13:54.326Z,1.13
2022-10-07T11:16:54.044Z,1.80
2022-10-07T11:19:29.423Z,1.23
2022-10-07T11:21:59.826Z,1.13
2022-10-07T11:24:31.028Z,1.00
2022-10-07T11:27:07.724Z,0.98
2022-10-07T11:29:55.042Z,1.05
2022-10-07T11:33:04.759Z,0.98
2022-10-07T11:35:37.651Z,0.95
2022-10-07T11:38:10.131Z,0.90
2022-10-07T11:40:42.677Z,0.80
2022-10-07T11:43:33.353Z,0.90
2022-10-07T11:46:09.206Z,0.68
2022-10-07T11:48:48.362Z,1.30
2022-10-07T11:51:43.800Z,0.77
2022-10-07T11:54:16.595Z,0.60
2022-10-07T11:56:55.960Z,0.70
2022-10-07T11:59:33.988Z,0.70
2022-10-07T12:02:01.726Z,0.57
2022-10-07T12:04:30.730Z,0.82
2022-10-07T12:07:37.989Z,0.82
2022-10-07T12:10:05.042Z,0.43
2022-10-07T12:12:44.823Z,1.13
2022-10-07T12:15:42.065Z,1.20
2022-10-07T12:18:08.304Z,0.65
2022-10-07T12:20:34.809Z,0.80
2022-10-07T12:23:19.458Z,1.15
2022-10-07T12:25:52.970Z,0.80
2022-10-07T12:28:28.218Z,0.70
2022-10-07T12:30:56.982Z,0.80
2022-10-07T12:33:44.958Z,0.52
2022-10-07T12:36:27.909Z,0.57
2022-10-07T12:39:00.392Z,0.98
2022-10-07T12:41:26.856Z,0.80
2022-10-07T12:44:08.171Z,0.70
2022-10-07T12:46:37.487Z,0.90
2022-10-07T12:49:36.766Z,1.10
2022-10-07T12:52:11.494Z,0.73
2022-10-07T12:54:50.294Z,1.00
2022-10-07T12:57:23.205Z,0.73
2022-10-07T13:00:08.380Z,0.50
2022-10-07T13:02:39.188Z,0.80
2022-10-07T13:05:36.162Z,0.75
2022-10-07T13:08:45.037Z,0.95
2022-10-07T13:11:47.521Z,1.15
2022-10-07T13:14:34.247Z,0.73
2022-10-07T13:17:29.046Z,0.65
2022-10-07T13:20:33.872Z,0.63
2022-10-07T13:23:16.432Z,0.77
2022-10-07T13:25:53.953Z,0.68
2022-10-07T13:28:24.024Z,0.77
2022-10-07T13:30:52.468Z,1.08
2022-10-07T13:33:25.024Z,0.85
2022-10-07T13:36:19.076Z,0.65
2022-10-07T13:38:47.879Z,0.75
2022-10-07T13:41:22.333Z,0.82
2022-10-07T13:43:54.215Z,0.73
2022-10-07T13:46:27.314Z,1.30
2022-10-07T13:48:56.265Z,0.60
2022-10-07T13:51:35.658Z,0.60
2022-10-07T13:54:05.746Z,0.93
2022-10-07T13:56:40.779Z,0.43
2022-10-07T13:59:18.596Z,0.52
2022-10-07T14:01:48.588Z,0.82
2022-10-07T14:04:15.033Z,0.65
2022-10-07T14:06:46.387Z,0.70
2022-10-07T14:09:33.372Z,0.98
2022-10-07T14:12:09.334Z,0.80
2022-10-07T14:14:42.455Z,0.67
2022-10-07T14:17:32.821Z,0.75
2022-10-07T14:20:05.547Z,0.90
2022-10-07T14:22:41.313Z,0.63
2022-10-07T14:25:21.419Z,0.77
2022-10-07T14:27:57.564Z,0.60
2022-10-07T14:30:56.385Z,0.95
2022-10-07T14:33:48.959Z,0.80
2022-10-07T14:36:18.794Z,0.55
2022-10-07T14:38:50.447Z,0.68
2022-10-07T14:41:20.078Z,0.70
2022-10-07T14:43:48.585Z,1.10
2022-10-07T14:46:23.946Z,0.75
2022-10-07T14:48:52.356Z,0.63
2022-10-07T14:51:22.429Z,0.40
2022-10-07T14:53:53.365Z,0.60
2022-10-07T14:56:24.821Z,0.60
2022-10-07T14:58:51.315Z,0.73
2022-10-07T15:01:18.854Z,0.70
2022-10-07T15:03:48.731Z,0.50
2022-10-07T15:06:16.904Z,0.83
2022-10-07T15:08:44.456Z,0.50
2022-10-07T15:11:18.772Z,0.60
2022-10-07T15:13:49.720Z,0.70
2022-10-07T15:16:21.997Z,0.88
2022-10-07T15:18:52.519Z,0.63
2022-10-07T15:21:21.624Z,0.60
2022-10-07T15:23:54.392Z,1.17
2022-10-07T15:26:24.081Z,0.65
2022-10-07T15:28:59.958Z,1.00
2022-10-07T15:31:29.216Z,0.90
2022-10-07T15:33:57.929Z,1.10
2022-10-07T15:36:29.525Z,0.70
2022-10-07T15:39:08.789Z,1.00
2022-10-07T15:41:44.885Z,0.88
2022-10-07T15:44:19.783Z,0.80
2022-10-07T15:46:52.605Z,0.90
2022-10-07T15:49:19.150Z,0.82
2022-10-07T15:51:48.822Z,0.80
2022-10-07T15:54:15.552Z,0.75
2022-10-07T15:56:45.400Z,0.90
2022-10-07T15:59:11.950Z,0.90
2022-10-07T16:01:38.367Z,0.88
2022-10-07T16:04:06.139Z,0.80
2022-10-07T16:06:35.337Z,1.10
2022-10-07T16:09:02.872Z,1.03
2022-10-07T16:11:33.186Z,0.80
2022-10-07T16:14:03.282Z,0.90
2022-10-07T16:16:31.544Z,1.08
2022-10-07T16:19:00.165Z,0.85
2022-10-07T16:21:30.044Z,0.90
2022-10-07T16:24:02.795Z,0.80
2022-10-07T16:26:30.410Z,0.90
2022-10-07T16:29:17.832Z,1.08
2022-10-07T16:31:45.489Z,1.02
2022-10-07T16:34:14.635Z,1.30
2022-10-07T16:36:45.604Z,1.17
2022-10-07T16:39:12.388Z,0.93
2022-10-07T16:41:41.588Z,1.20
2022-10-07T16:44:08.472Z,1.40
2022-10-07T16:46:35.024Z,1.47
2022-10-07T16:49:03.601Z,1.20
2022-10-07T16:51:36.326Z,0.93
2022-10-07T16:54:15.871Z,0.60
2022-10-07T16:56:48.125Z,0.85
2022-10-07T16:59:22.590Z,1.43
2022-10-07T17:01:51.732Z,0.80
2022-10-07T17:04:18.486Z,1.10
2022-10-07T17:06:45.596Z,0.80
2022-10-07T17:09:12.800Z,1.25
2022-10-07T17:11:39.753Z,1.33
2022-10-07T17:14:12.130Z,1.80
2022-10-07T17:16:44.324Z,1.05
2022-10-07T17:19:13.211Z,1.48
2022-10-07T17:21:41.956Z,1.17
2022-10-07T17:24:09.775Z,0.77
2022-10-07T17:26:37.805Z,1.55
2022-10-07T17:29:07.720Z,1.77
2022-10-07T17:31:36.166Z,1.10
2022-10-07T17:34:05.486Z,1.52
2022-10-07T17:36:32.843Z,1.20
2022-10-07T17:38:59.862Z,1.05
2022-10-07T17:41:34.603Z,1.13
2022-10-07T17:44:03.333Z,1.40
2022-10-07T17:46:33.368Z,1.00
2022-10-07T17:49:02.169Z,1.20
2022-10-07T17:51:31.349Z,1.48
2022-10-07T17:54:02.666Z,1.70
2022-10-07T17:56:31.926Z,1.50
2022-10-07T17:58:59.131Z,1.73
2022-10-07T18:01:28.248Z,1.43
2022-10-07T18:03:57.618Z,1.63
2022-10-07T18:06:25.777Z,1.60
2022-10-07T18:08:52.325Z,1.80
2022-10-07T18:11:18.837Z,1.52
2022-10-07T18:14:04.485Z,1.90
2022-10-07T18:16:32.531Z,1.90
2022-10-07T18:19:00.008Z,1.52
2022-10-07T18:21:30.432Z,1.33
2022-10-07T18:23:57.591Z,1.80
2022-10-07T18:26:24.640Z,1.20
2022-10-07T18:28:51.247Z,1.60
2022-10-07T18:31:18.741Z,1.13
2022-10-07T18:33:46.345Z,1.17
2022-10-07T18:36:16.024Z,1.27
2022-10-07T18:38:43.852Z,1.20
2022-10-07T18:41:13.104Z,1.38
2022-10-07T18:43:39.845Z,1.02
2022-10-07T18:46:13.636Z,1.40
2022-10-07T18:48:41.888Z,1.30
2022-10-07T18:51:09.922Z,1.30
2022-10-07T18:53:38.306Z,1.52
2022-10-07T18:56:08.424Z,0.98
2022-10-07T18:58:36.975Z,0.80
2022-10-07T19:01:12.474Z,1.20
2022-10-07T19:03:38.931Z,1.70
2022-10-07T19:06:10.948Z,1.80
2022-10-07T19:08:37.973Z,1.33
2022-10-07T19:11:10.029Z,1.20
2022-10-07T19:13:50.185Z,0.98
2022-10-07T19:16:25.603Z,1.10
2022-10-07T19:18:54.471Z,1.10
2022-10-07T19:21:21.332Z,1.20
2022-10-07T19:23:48.870Z,1.15
2022-10-07T19:26:21.314Z,1.40
2022-10-07T19:28:49.884Z,1.67
2022-10-07T19:31:21.560Z,0.98
2022-10-07T19:33:50.015Z,1.38
2022-10-07T19:36:18.690Z,1.25
2022-10-07T19:38:46.947Z,1.27
2022-10-07T19:41:15.863Z,1.20
2022-10-07T19:43:43.783Z,2.13
2022-10-07T19:46:10.803Z,2.50
2022-10-07T19:48:38.739Z,1.33
2022-10-07T19:51:08.619Z,1.55
2022-10-07T19:53:36.118Z,1.50
2022-10-07T19:56:16.903Z,1.30
2022-10-07T19:58:47.433Z,0.82
2022-10-07T20:01:15.309Z,1.05
2022-10-07T20:03:41.831Z,0.80
2022-10-07T20:06:09.958Z,1.23
2022-10-07T20:08:41.645Z,0.80
2022-10-07T20:11:09.702Z,0.77
2022-10-07T20:13:38.093Z,1.08
2022-10-07T20:16:12.406Z,0.85
2022-10-07T20:18:42.274Z,1.90
2022-10-07T20:21:12.563Z,0.80
2022-10-07T20:23:41.499Z,1.55
2022-10-07T20:26:10.894Z,1.13
2022-10-07T20:28:40.613Z,0.90
2022-10-07T20:31:12.799Z,1.63
2022-10-07T20:33:42.409Z,0.88
2022-10-07T20:36:11.053Z,0.75
2022-10-07T20:38:56.932Z,1.02
2022-10-07T20:41:43.096Z,1.05
2022-10-07T20:44:11.757Z,1.00
2022-10-07T20:46:38.669Z,0.63
2022-10-07T20:49:21.895Z,0.90
2022-10-07T20:51:53.505Z,0.50
2022-10-07T20:54:21.712Z,0.70
2022-10-07T20:56:48.957Z,0.70
2022-10-07T20:59:15.478Z,0.68
2022-10-07T21:01:42.599Z,0.95
2022-10-07T21:04:11.147Z,0.90
2022-10-07T21:06:39.477Z,0.85
2022-10-07T21:09:07.108Z,0.93
2022-10-07T21:11:35.353Z,0.90
2022-10-07T21:14:01.881Z,0.93
2022-10-07T21:16:30.568Z,0.50
2022-10-07T21:18:57.213Z,0.85
2022-10-07T21:21:24.690Z,1.20
2022-10-07T21:23:51.643Z,0.63
2022-10-07T21:26:18.865Z,0.47
2022-10-07T21:28:48.325Z,0.88
2022-10-07T21:31:18.316Z,0.70
2022-10-07T21:33:48.739Z,0.73
2022-10-07T21:36:21.620Z,1.77
2022-10-07T21:38:54.378Z,0.88
2022-10-07T21:41:26.776Z,0.80
2022-10-07T21:44:05.982Z,0.88
2022-10-07T21:46:34.143Z,0.73
2022-10-07T21:49:00.740Z,1.13
2022-10-07T21:51:27.539Z,0.88
2022-10-07T21:53:55.768Z,0.95
2022-10-07T21:56:22.149Z,0.77
2022-10-07T21:58:53.182Z,1.20
2022-10-07T22:01:21.856Z,0.95
2022-10-07T22:03:53.009Z,0.82
2022-10-07T22:06:19.680Z,0.90
2022-10-07T22:08:46.874Z,0.98
2022-10-07T22:11:18.459Z,1.47
2022-10-07T22:13:55.226Z,0.65
2022-10-07T22:16:23.062Z,1.00
2022-10-07T22:18:51.753Z,0.85
2022-10-07T22:21:25.662Z,1.60
2022-10-07T22:24:00.673Z,0.83
2022-10-07T22:26:30.105Z,1.20
2022-10-07T22:28:57.331Z,1.30
2022-10-07T22:31:23.990Z,0.80
2022-10-07T22:33:55.718Z,1.38
2022-10-07T22:36:22.355Z,0.93
2022-10-07T22:38:49.629Z,1.42
2022-10-07T22:41:17.868Z,1.10
2022-10-07T22:43:46.143Z,1.30
2022-10-07T22:46:15.853Z,1.10
2022-10-07T22:48:51.334Z,1.23
2022-10-07T22:51:17.736Z,0.95
2022-10-07T22:53:48.541Z,1.00
2022-10-07T22:56:17.604Z,1.10
2022-10-07T22:58:50.557Z,1.50
2022-10-07T23:01:17.453Z,1.17
2022-10-07T23:03:44.572Z,1.05
2022-10-07T23:06:13.524Z,1.13
2022-10-07T23:08:40.561Z,0.90
2022-10-07T23:11:07.963Z,1.45
2022-10-07T23:13:36.700Z,1.00
2022-10-07T23:16:09.018Z,1.00
2022-10-07T23:18:36.995Z,1.30
2022-10-07T23:21:06.812Z,0.98
2022-10-07T23:23:37.269Z,0.70
2022-10-07T23:26:05.523Z,0.80
2022-10-07T23:28:34.198Z,1.00
2022-10-07T23:31:08.478Z,0.88
2022-10-07T23:33:36.344Z,1.00
2022-10-07T23:36:05.608Z,0.95
2022-10-07T23:38:33.389Z,0.90
2022-10-07T23:41:00.725Z,1.00
2022-10-07T23:43:27.747Z,0.73
2022-10-07T23:45:54.171Z,0.90
2022-10-07T23:48:21.014Z,1.25
2022-10-07T23:50:49.244Z,0.80
2022-10-07T23:53:20.076Z,0.70
2022-10-07T23:55:48.023Z,0.95
2022-10-07T23:58:16.014Z,1.42
